sensor_id;sensor_type;location;lat;lon;timestamp;P1;durP1;ratioP1;P2;durP2;ratioP2
46415;SDS011;32620;51.704;7.822;2023-04-25T00:01:30;32.13;;;10.90;;
46415;SDS011;32620;51.704;7.822;2023-04-25T00:03:57;35.20;;;11.13;;
46415;SDS011;32620;51.704;7.822;2023-04-25T00:06:22;27.83;;;10.07;;
46415;SDS011;32620;51.704;7.822;2023-04-25T00:08:55;33.22;;;11.43;;
46415;SDS011;32620;51.704;7.822;2023-04-25T00:11:21;30.65;;;9.95;;
46415;SDS011;32620;51.704;7.822;2023-04-25T00:13:48;28.23;;;11.10;;
46415;SDS011;32620;51.704;7.822;2023-04-25T00:16:14;33.88;;;11.27;;
46415;SDS011;32620;51.704;7.822;2023-04-25T00:18:43;32.20;;;11.02;;
46415;SDS011;32620;51.704;7.822;2023-04-25T00:21:11;27.77;;;11.85;;
46415;SDS011;32620;51.704;7.822;2023-04-25T00:23:37;30.65;;;10.77;;
46415;SDS011;32620;51.704;7.822;2023-04-25T00:26:03;26.30;;;10.20;;
46415;SDS011;32620;51.704;7.822;2023-04-25T00:28:29;23.55;;;10.35;;
46415;SDS011;32620;51.704;7.822;2023-04-25T00:30:55;32.58;;;11.13;;
46415;SDS011;32620;51.704;7.822;2023-04-25T00:33:21;26.85;;;11.25;;
46415;SDS011;32620;51.704;7.822;2023-04-25T00:35:46;29.05;;;11.02;;
46415;SDS011;32620;51.704;7.822;2023-04-25T00:38:15;21.48;;;10.90;;
46415;SDS011;32620;51.704;7.822;2023-04-25T00:40:41;32.55;;;11.38;;
46415;SDS011;32620;51.704;7.822;2023-04-25T00:43:08;25.88;;;11.07;;
46415;SDS011;32620;51.704;7.822;2023-04-25T00:45:34;29.45;;;11.00;;
46415;SDS011;32620;51.704;7.822;2023-04-25T00:48:04;26.48;;;10.63;;
46415;SDS011;32620;51.704;7.822;2023-04-25T00:50:32;26.23;;;11.35;;
46415;SDS011;32620;51.704;7.822;2023-04-25T00:52:59;25.75;;;11.63;;
46415;SDS011;32620;51.704;7.822;2023-04-25T00:55:25;28.42;;;11.13;;
46415;SDS011;32620;51.704;7.822;2023-04-25T00:57:51;25.75;;;11.48;;
46415;SDS011;32620;51.704;7.822;2023-04-25T01:00:17;29.00;;;11.18;;
46415;SDS011;32620;51.704;7.822;2023-04-25T01:02:44;30.50;;;11.88;;
46415;SDS011;32620;51.704;7.822;2023-04-25T01:05:10;28.65;;;11.77;;
46415;SDS011;32620;51.704;7.822;2023-04-25T01:07:37;25.95;;;10.60;;
46415;SDS011;32620;51.704;7.822;2023-04-25T01:10:03;23.35;;;11.00;;
46415;SDS011;32620;51.704;7.822;2023-04-25T01:12:31;26.33;;;11.38;;
46415;SDS011;32620;51.704;7.822;2023-04-25T01:14:56;32.65;;;11.63;;
46415;SDS011;32620;51.704;7.822;2023-04-25T01:17:22;21.15;;;11.27;;
46415;SDS011;32620;51.704;7.822;2023-04-25T01:19:49;25.70;;;11.25;;
46415;SDS011;32620;51.704;7.822;2023-04-25T01:22:15;22.85;;;11.00;;
46415;SDS011;32620;51.704;7.822;2023-04-25T01:24:42;29.67;;;11.48;;
46415;SDS011;32620;51.704;7.822;2023-04-25T01:27:08;24.30;;;11.23;;
46415;SDS011;32620;51.704;7.822;2023-04-25T01:29:35;24.77;;;11.65;;
46415;SDS011;32620;51.704;7.822;2023-04-25T01:32:04;29.63;;;13.02;;
46415;SDS011;32620;51.704;7.822;2023-04-25T01:34:31;26.95;;;12.27;;
46415;SDS011;32620;51.704;7.822;2023-04-25T01:36:56;27.80;;;12.52;;
46415;SDS011;32620;51.704;7.822;2023-04-25T01:39:26;30.13;;;12.68;;
46415;SDS011;32620;51.704;7.822;2023-04-25T01:41:55;31.55;;;13.30;;
46415;SDS011;32620;51.704;7.822;2023-04-25T01:44:24;28.40;;;13.70;;
46415;SDS011;32620;51.704;7.822;2023-04-25T01:46:50;29.05;;;12.85;;
46415;SDS011;32620;51.704;7.822;2023-04-25T01:49:16;28.77;;;13.35;;
46415;SDS011;32620;51.704;7.822;2023-04-25T01:51:57;25.98;;;13.95;;
46415;SDS011;32620;51.704;7.822;2023-04-25T01:54:23;33.60;;;12.93;;
46415;SDS011;32620;51.704;7.822;2023-04-25T01:56:50;30.40;;;13.98;;
46415;SDS011;32620;51.704;7.822;2023-04-25T01:59:18;32.15;;;13.70;;
46415;SDS011;32620;51.704;7.822;2023-04-25T02:01:46;34.05;;;14.05;;
46415;SDS011;32620;51.704;7.822;2023-04-25T02:04:12;33.22;;;13.30;;
46415;SDS011;32620;51.704;7.822;2023-04-25T02:06:38;28.65;;;13.52;;
46415;SDS011;32620;51.704;7.822;2023-04-25T02:09:04;32.15;;;14.70;;
46415;SDS011;32620;51.704;7.822;2023-04-25T02:11:29;25.85;;;12.98;;
46415;SDS011;32620;51.704;7.822;2023-04-25T02:13:55;27.75;;;13.45;;
46415;SDS011;32620;51.704;7.822;2023-04-25T02:16:21;33.97;;;14.50;;
46415;SDS011;32620;51.704;7.822;2023-04-25T02:18:47;33.33;;;14.13;;
46415;SDS011;32620;51.704;7.822;2023-04-25T02:21:12;31.60;;;13.13;;
46415;SDS011;32620;51.704;7.822;2023-04-25T02:23:38;31.38;;;14.50;;
46415;SDS011;32620;51.704;7.822;2023-04-25T02:26:13;36.00;;;13.73;;
46415;SDS011;32620;51.704;7.822;2023-04-25T02:28:39;36.63;;;13.73;;
46415;SDS011;32620;51.704;7.822;2023-04-25T02:31:07;35.35;;;14.15;;
46415;SDS011;32620;51.704;7.822;2023-04-25T02:33:32;32.97;;;14.00;;
46415;SDS011;32620;51.704;7.822;2023-04-25T02:35:59;31.17;;;13.07;;
46415;SDS011;32620;51.704;7.822;2023-04-25T02:38:25;36.13;;;13.70;;
46415;SDS011;32620;51.704;7.822;2023-04-25T02:40:50;33.60;;;13.93;;
46415;SDS011;32620;51.704;7.822;2023-04-25T02:43:19;31.27;;;12.52;;
46415;SDS011;32620;51.704;7.822;2023-04-25T02:45:45;27.63;;;12.45;;
46415;SDS011;32620;51.704;7.822;2023-04-25T02:48:11;32.53;;;12.70;;
46415;SDS011;32620;51.704;7.822;2023-04-25T02:50:37;27.60;;;12.57;;
46415;SDS011;32620;51.704;7.822;2023-04-25T02:53:06;39.55;;;13.15;;
46415;SDS011;32620;51.704;7.822;2023-04-25T02:55:32;32.45;;;12.60;;
46415;SDS011;32620;51.704;7.822;2023-04-25T02:57:58;34.60;;;12.38;;
46415;SDS011;32620;51.704;7.822;2023-04-25T03:00:27;33.00;;;12.75;;
46415;SDS011;32620;51.704;7.822;2023-04-25T03:02:56;30.13;;;12.27;;
46415;SDS011;32620;51.704;7.822;2023-04-25T03:05:24;30.77;;;13.05;;
46415;SDS011;32620;51.704;7.822;2023-04-25T03:07:53;32.85;;;11.75;;
46415;SDS011;32620;51.704;7.822;2023-04-25T03:10:20;35.10;;;13.05;;
46415;SDS011;32620;51.704;7.822;2023-04-25T03:12:46;31.40;;;13.02;;
46415;SDS011;32620;51.704;7.822;2023-04-25T03:15:12;35.78;;;13.27;;
46415;SDS011;32620;51.704;7.822;2023-04-25T03:17:41;35.97;;;12.55;;
46415;SDS011;32620;51.704;7.822;2023-04-25T03:20:12;32.22;;;12.85;;
46415;SDS011;32620;51.704;7.822;2023-04-25T03:22:41;36.95;;;13.10;;
46415;SDS011;32620;51.704;7.822;2023-04-25T03:25:07;33.25;;;12.30;;
46415;SDS011;32620;51.704;7.822;2023-04-25T03:27:33;31.15;;;12.60;;
46415;SDS011;32620;51.704;7.822;2023-04-25T03:29:59;37.08;;;14.38;;
46415;SDS011;32620;51.704;7.822;2023-04-25T03:32:25;42.42;;;14.88;;
46415;SDS011;32620;51.704;7.822;2023-04-25T03:34:51;35.50;;;13.65;;
46415;SDS011;32620;51.704;7.822;2023-04-25T03:37:16;36.33;;;14.43;;
46415;SDS011;32620;51.704;7.822;2023-04-25T03:39:45;30.77;;;12.75;;
46415;SDS011;32620;51.704;7.822;2023-04-25T03:42:11;36.97;;;14.50;;
46415;SDS011;32620;51.704;7.822;2023-04-25T03:44:39;38.08;;;14.65;;
46415;SDS011;32620;51.704;7.822;2023-04-25T03:47:08;35.45;;;13.23;;
46415;SDS011;32620;51.704;7.822;2023-04-25T03:49:34;42.28;;;13.18;;
46415;SDS011;32620;51.704;7.822;2023-04-25T03:52:01;42.75;;;13.63;;
46415;SDS011;32620;51.704;7.822;2023-04-25T03:54:27;36.53;;;12.75;;
46415;SDS011;32620;51.704;7.822;2023-04-25T03:56:55;28.08;;;11.30;;
46415;SDS011;32620;51.704;7.822;2023-04-25T03:59:22;24.85;;;10.82;;
46415;SDS011;32620;51.704;7.822;2023-04-25T04:01:50;39.50;;;10.63;;
46415;SDS011;32620;51.704;7.822;2023-04-25T04:04:17;38.83;;;10.15;;
46415;SDS011;32620;51.704;7.822;2023-04-25T04:06:43;36.30;;;9.63;;
46415;SDS011;32620;51.704;7.822;2023-04-25T04:09:09;35.03;;;9.82;;
46415;SDS011;32620;51.704;7.822;2023-04-25T04:11:36;31.92;;;9.75;;
46415;SDS011;32620;51.704;7.822;2023-04-25T04:14:04;32.70;;;10.32;;
46415;SDS011;32620;51.704;7.822;2023-04-25T04:16:30;28.02;;;8.65;;
46415;SDS011;32620;51.704;7.822;2023-04-25T04:18:56;40.58;;;10.90;;
46415;SDS011;32620;51.704;7.822;2023-04-25T04:21:21;37.50;;;10.13;;
46415;SDS011;32620;51.704;7.822;2023-04-25T04:23:47;31.27;;;10.52;;
46415;SDS011;32620;51.704;7.822;2023-04-25T04:26:13;41.88;;;14.10;;
46415;SDS011;32620;51.704;7.822;2023-04-25T04:28:41;68.20;;;22.48;;
46415;SDS011;32620;51.704;7.822;2023-04-25T04:31:07;44.65;;;14.38;;
46415;SDS011;32620;51.704;7.822;2023-04-25T04:33:34;43.25;;;12.15;;
46415;SDS011;32620;51.704;7.822;2023-04-25T04:36:00;56.10;;;13.82;;
46415;SDS011;32620;51.704;7.822;2023-04-25T04:38:25;43.38;;;15.43;;
46415;SDS011;32620;51.704;7.822;2023-04-25T04:40:51;31.92;;;11.95;;
46415;SDS011;32620;51.704;7.822;2023-04-25T04:43:17;37.00;;;10.95;;
46415;SDS011;32620;51.704;7.822;2023-04-25T04:45:43;37.50;;;10.65;;
46415;SDS011;32620;51.704;7.822;2023-04-25T04:48:09;43.42;;;11.70;;
46415;SDS011;32620;51.704;7.822;2023-04-25T04:50:36;36.30;;;10.60;;
46415;SDS011;32620;51.704;7.822;2023-04-25T04:53:03;35.15;;;11.55;;
46415;SDS011;32620;51.704;7.822;2023-04-25T04:55:32;33.50;;;10.63;;
46415;SDS011;32620;51.704;7.822;2023-04-25T04:57:57;40.80;;;10.27;;
46415;SDS011;32620;51.704;7.822;2023-04-25T05:00:23;37.45;;;10.50;;
46415;SDS011;32620;51.704;7.822;2023-04-25T05:02:48;35.88;;;10.02;;
46415;SDS011;32620;51.704;7.822;2023-04-25T05:05:14;42.42;;;10.93;;
46415;SDS011;32620;51.704;7.822;2023-04-25T05:07:40;38.97;;;10.93;;
46415;SDS011;32620;51.704;7.822;2023-04-25T05:10:05;39.53;;;10.25;;
46415;SDS011;32620;51.704;7.822;2023-04-25T05:12:32;35.28;;;9.57;;
46415;SDS011;32620;51.704;7.822;2023-04-25T05:14:57;40.05;;;10.00;;
46415;SDS011;32620;51.704;7.822;2023-04-25T05:17:22;39.28;;;10.38;;
46415;SDS011;32620;51.704;7.822;2023-04-25T05:19:48;40.65;;;9.63;;
46415;SDS011;32620;51.704;7.822;2023-04-25T05:22:14;33.35;;;9.38;;
46415;SDS011;32620;51.704;7.822;2023-04-25T05:24:39;41.58;;;9.32;;
46415;SDS011;32620;51.704;7.822;2023-04-25T05:27:05;39.15;;;10.55;;
46415;SDS011;32620;51.704;7.822;2023-04-25T05:29:30;33.47;;;10.00;;
46415;SDS011;32620;51.704;7.822;2023-04-25T05:31:56;33.50;;;8.85;;
46415;SDS011;32620;51.704;7.822;2023-04-25T05:34:21;35.25;;;9.15;;
46415;SDS011;32620;51.704;7.822;2023-04-25T05:36:47;35.75;;;8.82;;
46415;SDS011;32620;51.704;7.822;2023-04-25T05:39:14;33.55;;;9.05;;
46415;SDS011;32620;51.704;7.822;2023-04-25T05:41:41;30.08;;;8.45;;
46415;SDS011;32620;51.704;7.822;2023-04-25T05:44:07;31.80;;;9.18;;
46415;SDS011;32620;51.704;7.822;2023-04-25T05:46:32;25.85;;;8.02;;
46415;SDS011;32620;51.704;7.822;2023-04-25T05:48:58;30.08;;;7.60;;
46415;SDS011;32620;51.704;7.822;2023-04-25T05:51:23;29.60;;;8.15;;
46415;SDS011;32620;51.704;7.822;2023-04-25T05:53:49;29.05;;;7.18;;
46415;SDS011;32620;51.704;7.822;2023-04-25T05:56:14;21.98;;;7.65;;
46415;SDS011;32620;51.704;7.822;2023-04-25T05:58:40;29.73;;;7.25;;
46415;SDS011;32620;51.704;7.822;2023-04-25T06:01:06;25.02;;;7.30;;
46415;SDS011;32620;51.704;7.822;2023-04-25T06:03:31;26.67;;;7.15;;
46415;SDS011;32620;51.704;7.822;2023-04-25T06:05:57;25.70;;;7.32;;
46415;SDS011;32620;51.704;7.822;2023-04-25T06:08:22;33.45;;;7.95;;
46415;SDS011;32620;51.704;7.822;2023-04-25T06:10:48;26.33;;;6.85;;
46415;SDS011;32620;51.704;7.822;2023-04-25T06:13:13;25.67;;;6.75;;
46415;SDS011;32620;51.704;7.822;2023-04-25T06:15:39;18.98;;;5.53;;
46415;SDS011;32620;51.704;7.822;2023-04-25T06:18:05;20.77;;;5.47;;
46415;SDS011;32620;51.704;7.822;2023-04-25T06:20:30;18.27;;;5.45;;
46415;SDS011;32620;51.704;7.822;2023-04-25T06:22:56;20.27;;;6.20;;
46415;SDS011;32620;51.704;7.822;2023-04-25T06:25:22;19.35;;;6.20;;
46415;SDS011;32620;51.704;7.822;2023-04-25T06:27:47;18.38;;;5.75;;
46415;SDS011;32620;51.704;7.822;2023-04-25T06:30:13;34.42;;;6.57;;
46415;SDS011;32620;51.704;7.822;2023-04-25T06:32:38;18.42;;;5.95;;
46415;SDS011;32620;51.704;7.822;2023-04-25T06:35:04;18.85;;;6.38;;
46415;SDS011;32620;51.704;7.822;2023-04-25T06:37:30;26.90;;;7.15;;
46415;SDS011;32620;51.704;7.822;2023-04-25T06:39:56;22.83;;;6.60;;
46415;SDS011;32620;51.704;7.822;2023-04-25T06:42:21;23.70;;;6.00;;
46415;SDS011;32620;51.704;7.822;2023-04-25T06:44:47;22.30;;;6.35;;
46415;SDS011;32620;51.704;7.822;2023-04-25T06:47:12;19.83;;;6.95;;
46415;SDS011;32620;51.704;7.822;2023-04-25T06:49:38;28.52;;;5.90;;
46415;SDS011;32620;51.704;7.822;2023-04-25T06:52:04;19.73;;;5.97;;
46415;SDS011;32620;51.704;7.822;2023-04-25T06:54:29;22.20;;;6.10;;
46415;SDS011;32620;51.704;7.822;2023-04-25T06:56:55;20.98;;;5.78;;
46415;SDS011;32620;51.704;7.822;2023-04-25T06:59:21;19.85;;;4.90;;
46415;SDS011;32620;51.704;7.822;2023-04-25T07:01:47;20.17;;;5.72;;
46415;SDS011;32620;51.704;7.822;2023-04-25T07:04:13;19.98;;;5.40;;
46415;SDS011;32620;51.704;7.822;2023-04-25T07:06:38;19.17;;;5.15;;
46415;SDS011;32620;51.704;7.822;2023-04-25T07:09:07;19.27;;;5.68;;
46415;SDS011;32620;51.704;7.822;2023-04-25T07:11:34;18.08;;;6.85;;
46415;SDS011;32620;51.704;7.822;2023-04-25T07:14:00;27.67;;;6.22;;
46415;SDS011;32620;51.704;7.822;2023-04-25T07:16:26;22.23;;;5.32;;
46415;SDS011;32620;51.704;7.822;2023-04-25T07:18:52;19.25;;;4.38;;
46415;SDS011;32620;51.704;7.822;2023-04-25T07:21:17;19.23;;;5.30;;
46415;SDS011;32620;51.704;7.822;2023-04-25T07:23:42;23.20;;;4.80;;
46415;SDS011;32620;51.704;7.822;2023-04-25T07:26:08;19.48;;;5.47;;
46415;SDS011;32620;51.704;7.822;2023-04-25T07:28:34;17.00;;;3.92;;
46415;SDS011;32620;51.704;7.822;2023-04-25T07:30:59;16.17;;;4.10;;
46415;SDS011;32620;51.704;7.822;2023-04-25T07:33:25;18.30;;;4.15;;
46415;SDS011;32620;51.704;7.822;2023-04-25T07:35:50;16.73;;;5.72;;
46415;SDS011;32620;51.704;7.822;2023-04-25T07:38:17;23.25;;;5.25;;
46415;SDS011;32620;51.704;7.822;2023-04-25T07:40:42;15.70;;;4.20;;
46415;SDS011;32620;51.704;7.822;2023-04-25T07:43:08;18.02;;;4.65;;
46415;SDS011;32620;51.704;7.822;2023-04-25T07:45:33;19.10;;;4.55;;
46415;SDS011;32620;51.704;7.822;2023-04-25T07:47:59;22.60;;;4.72;;
46415;SDS011;32620;51.704;7.822;2023-04-25T07:50:24;17.05;;;4.80;;
46415;SDS011;32620;51.704;7.822;2023-04-25T07:52:50;16.55;;;4.75;;
46415;SDS011;32620;51.704;7.822;2023-04-25T07:55:16;13.85;;;3.72;;
46415;SDS011;32620;51.704;7.822;2023-04-25T07:57:41;16.70;;;4.32;;
46415;SDS011;32620;51.704;7.822;2023-04-25T08:00:07;20.58;;;4.10;;
46415;SDS011;32620;51.704;7.822;2023-04-25T08:02:34;14.52;;;3.78;;
46415;SDS011;32620;51.704;7.822;2023-04-25T08:05:01;18.02;;;3.67;;
46415;SDS011;32620;51.704;7.822;2023-04-25T08:07:27;13.00;;;3.58;;
46415;SDS011;32620;51.704;7.822;2023-04-25T08:09:53;13.48;;;3.85;;
46415;SDS011;32620;51.704;7.822;2023-04-25T08:12:19;10.73;;;3.75;;
46415;SDS011;32620;51.704;7.822;2023-04-25T08:14:45;14.60;;;3.97;;
46415;SDS011;32620;51.704;7.822;2023-04-25T08:17:10;12.77;;;3.83;;
46415;SDS011;32620;51.704;7.822;2023-04-25T08:19:36;13.63;;;3.78;;
46415;SDS011;32620;51.704;7.822;2023-04-25T08:22:02;14.50;;;4.00;;
46415;SDS011;32620;51.704;7.822;2023-04-25T08:24:28;14.45;;;3.80;;
46415;SDS011;32620;51.704;7.822;2023-04-25T08:26:53;15.00;;;4.00;;
46415;SDS011;32620;51.704;7.822;2023-04-25T08:29:19;13.38;;;3.28;;
46415;SDS011;32620;51.704;7.822;2023-04-25T08:31:44;14.32;;;3.67;;
46415;SDS011;32620;51.704;7.822;2023-04-25T08:34:10;11.60;;;3.22;;
46415;SDS011;32620;51.704;7.822;2023-04-25T08:36:36;17.25;;;4.38;;
46415;SDS011;32620;51.704;7.822;2023-04-25T08:39:01;15.77;;;4.00;;
46415;SDS011;32620;51.704;7.822;2023-04-25T08:41:27;13.45;;;3.75;;
46415;SDS011;32620;51.704;7.822;2023-04-25T08:43:53;15.15;;;4.05;;
46415;SDS011;32620;51.704;7.822;2023-04-25T08:46:20;13.88;;;4.07;;
46415;SDS011;32620;51.704;7.822;2023-04-25T08:48:47;16.23;;;4.05;;
46415;SDS011;32620;51.704;7.822;2023-04-25T08:51:17;12.07;;;3.67;;
46415;SDS011;32620;51.704;7.822;2023-04-25T08:53:51;16.75;;;3.83;;
46415;SDS011;32620;51.704;7.822;2023-04-25T08:56:17;16.73;;;4.13;;
46415;SDS011;32620;51.704;7.822;2023-04-25T08:58:45;9.60;;;3.40;;
46415;SDS011;32620;51.704;7.822;2023-04-25T09:01:14;12.82;;;3.53;;
46415;SDS011;32620;51.704;7.822;2023-04-25T09:03:39;17.58;;;3.85;;
46415;SDS011;32620;51.704;7.822;2023-04-25T09:06:05;9.00;;;2.83;;
46415;SDS011;32620;51.704;7.822;2023-04-25T09:08:31;9.85;;;3.30;;
46415;SDS011;32620;51.704;7.822;2023-04-25T09:10:56;11.40;;;3.22;;
46415;SDS011;32620;51.704;7.822;2023-04-25T09:13:26;17.38;;;3.95;;
46415;SDS011;32620;51.704;7.822;2023-04-25T09:15:54;14.93;;;3.45;;
46415;SDS011;32620;51.704;7.822;2023-04-25T09:18:29;16.30;;;3.60;;
46415;SDS011;32620;51.704;7.822;2023-04-25T09:21:07;12.45;;;3.42;;
46415;SDS011;32620;51.704;7.822;2023-04-25T09:23:44;11.70;;;3.33;;
46415;SDS011;32620;51.704;7.822;2023-04-25T09:26:13;14.90;;;3.75;;
46415;SDS011;32620;51.704;7.822;2023-04-25T09:28:41;11.70;;;3.03;;
46415;SDS011;32620;51.704;7.822;2023-04-25T09:31:09;12.77;;;2.92;;
46415;SDS011;32620;51.704;7.822;2023-04-25T09:33:35;17.73;;;3.33;;
46415;SDS011;32620;51.704;7.822;2023-04-25T09:36:01;10.90;;;3.22;;
46415;SDS011;32620;51.704;7.822;2023-04-25T09:38:29;10.82;;;3.10;;
46415;SDS011;32620;51.704;7.822;2023-04-25T09:40:56;13.82;;;3.22;;
46415;SDS011;32620;51.704;7.822;2023-04-25T09:43:23;14.57;;;3.60;;
46415;SDS011;32620;51.704;7.822;2023-04-25T09:45:49;10.60;;;3.15;;
46415;SDS011;32620;51.704;7.822;2023-04-25T09:48:18;15.52;;;4.03;;
46415;SDS011;32620;51.704;7.822;2023-04-25T09:50:45;11.82;;;3.05;;
46415;SDS011;32620;51.704;7.822;2023-04-25T09:53:28;15.70;;;3.10;;
46415;SDS011;32620;51.704;7.822;2023-04-25T09:55:54;12.93;;;3.10;;
46415;SDS011;32620;51.704;7.822;2023-04-25T09:58:21;8.43;;;2.30;;
46415;SDS011;32620;51.704;7.822;2023-04-25T10:00:49;8.80;;;2.55;;
46415;SDS011;32620;51.704;7.822;2023-04-25T10:03:16;16.90;;;7.78;;
46415;SDS011;32620;51.704;7.822;2023-04-25T10:05:44;9.38;;;2.75;;
46415;SDS011;32620;51.704;7.822;2023-04-25T10:08:12;9.00;;;2.60;;
46415;SDS011;32620;51.704;7.822;2023-04-25T10:10:39;10.40;;;2.70;;
46415;SDS011;32620;51.704;7.822;2023-04-25T10:13:05;10.60;;;2.85;;
46415;SDS011;32620;51.704;7.822;2023-04-25T10:15:32;8.45;;;2.65;;
46415;SDS011;32620;51.704;7.822;2023-04-25T10:18:00;11.27;;;2.90;;
46415;SDS011;32620;51.704;7.822;2023-04-25T10:20:26;8.77;;;2.22;;
46415;SDS011;32620;51.704;7.822;2023-04-25T10:22:51;7.97;;;2.70;;
46415;SDS011;32620;51.704;7.822;2023-04-25T10:25:21;13.23;;;2.50;;
46415;SDS011;32620;51.704;7.822;2023-04-25T10:27:49;11.32;;;2.83;;
46415;SDS011;32620;51.704;7.822;2023-04-25T10:30:16;13.27;;;2.63;;
46415;SDS011;32620;51.704;7.822;2023-04-25T10:32:43;6.55;;;2.40;;
46415;SDS011;32620;51.704;7.822;2023-04-25T10:35:13;8.73;;;2.55;;
46415;SDS011;32620;51.704;7.822;2023-04-25T10:37:56;11.48;;;2.92;;
46415;SDS011;32620;51.704;7.822;2023-04-25T10:40:27;10.30;;;3.20;;
46415;SDS011;32620;51.704;7.822;2023-04-25T10:42:53;10.10;;;2.10;;
46415;SDS011;32620;51.704;7.822;2023-04-25T10:45:20;7.35;;;2.63;;
46415;SDS011;32620;51.704;7.822;2023-04-25T10:47:46;9.07;;;2.92;;
46415;SDS011;32620;51.704;7.822;2023-04-25T10:50:11;7.53;;;2.60;;
46415;SDS011;32620;51.704;7.822;2023-04-25T10:52:40;8.95;;;2.78;;
46415;SDS011;32620;51.704;7.822;2023-04-25T10:55:06;12.00;;;3.08;;
46415;SDS011;32620;51.704;7.822;2023-04-25T10:57:36;5.88;;;2.47;;
46415;SDS011;32620;51.704;7.822;2023-04-25T11:00:13;15.30;;;3.42;;
46415;SDS011;32620;51.704;7.822;2023-04-25T11:02:41;6.85;;;2.30;;
46415;SDS011;32620;51.704;7.822;2023-04-25T11:05:10;11.85;;;2.63;;
46415;SDS011;32620;51.704;7.822;2023-04-25T11:07:48;9.00;;;2.80;;
46415;SDS011;32620;51.704;7.822;2023-04-25T11:10:16;9.50;;;2.72;;
46415;SDS011;32620;51.704;7.822;2023-04-25T11:12:42;12.95;;;2.53;;
46415;SDS011;32620;51.704;7.822;2023-04-25T11:15:09;15.57;;;3.17;;
46415;SDS011;32620;51.704;7.822;2023-04-25T11:17:35;12.73;;;3.00;;
46415;SDS011;32620;51.704;7.822;2023-04-25T11:20:01;9.15;;;3.13;;
46415;SDS011;32620;51.704;7.822;2023-04-25T11:22:27;11.13;;;2.95;;
46415;SDS011;32620;51.704;7.822;2023-04-25T11:24:53;9.32;;;2.28;;
46415;SDS011;32620;51.704;7.822;2023-04-25T11:27:19;10.35;;;2.45;;
46415;SDS011;32620;51.704;7.822;2023-04-25T11:29:46;7.97;;;2.97;;
46415;SDS011;32620;51.704;7.822;2023-04-25T11:32:13;8.40;;;2.60;;
46415;SDS011;32620;51.704;7.822;2023-04-25T11:34:42;7.43;;;1.90;;
46415;SDS011;32620;51.704;7.822;2023-04-25T11:37:10;4.55;;;2.05;;
46415;SDS011;32620;51.704;7.822;2023-04-25T11:39:37;7.72;;;2.33;;
46415;SDS011;32620;51.704;7.822;2023-04-25T11:42:03;9.35;;;2.45;;
46415;SDS011;32620;51.704;7.822;2023-04-25T11:44:30;13.45;;;2.60;;
46415;SDS011;32620;51.704;7.822;2023-04-25T11:46:56;7.20;;;2.20;;
46415;SDS011;32620;51.704;7.822;2023-04-25T11:49:21;14.55;;;2.80;;
46415;SDS011;32620;51.704;7.822;2023-04-25T11:51:49;10.07;;;2.47;;
46415;SDS011;32620;51.704;7.822;2023-04-25T11:54:15;9.23;;;2.65;;
46415;SDS011;32620;51.704;7.822;2023-04-25T11:56:42;9.98;;;2.80;;
46415;SDS011;32620;51.704;7.822;2023-04-25T11:59:08;14.75;;;4.97;;
46415;SDS011;32620;51.704;7.822;2023-04-25T12:01:35;9.20;;;2.47;;
46415;SDS011;32620;51.704;7.822;2023-04-25T12:04:11;11.10;;;2.80;;
46415;SDS011;32620;51.704;7.822;2023-04-25T12:06:38;6.55;;;2.25;;
46415;SDS011;32620;51.704;7.822;2023-04-25T12:09:06;10.52;;;3.22;;
46415;SDS011;32620;51.704;7.822;2023-04-25T12:11:40;11.43;;;2.78;;
46415;SDS011;32620;51.704;7.822;2023-04-25T12:14:08;9.93;;;2.65;;
46415;SDS011;32620;51.704;7.822;2023-04-25T12:16:42;5.90;;;2.72;;
46415;SDS011;32620;51.704;7.822;2023-04-25T12:19:08;9.52;;;2.47;;
46415;SDS011;32620;51.704;7.822;2023-04-25T12:21:34;6.57;;;2.35;;
46415;SDS011;32620;51.704;7.822;2023-04-25T12:24:09;6.78;;;2.70;;
46415;SDS011;32620;51.704;7.822;2023-04-25T12:26:53;8.45;;;2.33;;
46415;SDS011;32620;51.704;7.822;2023-04-25T12:29:29;7.45;;;2.40;;
46415;SDS011;32620;51.704;7.822;2023-04-25T12:31:56;11.52;;;2.13;;
46415;SDS011;32620;51.704;7.822;2023-04-25T12:34:23;12.77;;;3.03;;
46415;SDS011;32620;51.704;7.822;2023-04-25T12:36:49;9.63;;;3.05;;
46415;SDS011;32620;51.704;7.822;2023-04-25T12:39:16;6.43;;;2.40;;
46415;SDS011;32620;51.704;7.822;2023-04-25T12:41:48;7.25;;;2.85;;
46415;SDS011;32620;51.704;7.822;2023-04-25T12:44:14;6.70;;;2.25;;
46415;SDS011;32620;51.704;7.822;2023-04-25T12:46:40;5.60;;;2.25;;
46415;SDS011;32620;51.704;7.822;2023-04-25T12:49:06;5.82;;;2.20;;
46415;SDS011;32620;51.704;7.822;2023-04-25T12:51:33;7.50;;;2.45;;
46415;SDS011;32620;51.704;7.822;2023-04-25T12:53:59;7.57;;;2.53;;
46415;SDS011;32620;51.704;7.822;2023-04-25T12:56:26;8.10;;;2.60;;
46415;SDS011;32620;51.704;7.822;2023-04-25T12:58:52;7.60;;;2.30;;
46415;SDS011;32620;51.704;7.822;2023-04-25T13:01:18;11.77;;;2.95;;
46415;SDS011;32620;51.704;7.822;2023-04-25T13:03:45;10.18;;;2.90;;
46415;SDS011;32620;51.704;7.822;2023-04-25T13:06:11;6.22;;;2.53;;
46415;SDS011;32620;51.704;7.822;2023-04-25T13:08:37;7.40;;;2.47;;
46415;SDS011;32620;51.704;7.822;2023-04-25T13:11:03;6.32;;;2.08;;
46415;SDS011;32620;51.704;7.822;2023-04-25T13:13:31;11.95;;;2.72;;
46415;SDS011;32620;51.704;7.822;2023-04-25T13:15:57;13.10;;;2.72;;
46415;SDS011;32620;51.704;7.822;2023-04-25T13:18:23;7.53;;;2.75;;
46415;SDS011;32620;51.704;7.822;2023-04-25T13:20:51;7.40;;;2.67;;
46415;SDS011;32620;51.704;7.822;2023-04-25T13:23:18;5.82;;;2.08;;
46415;SDS011;32620;51.704;7.822;2023-04-25T13:25:44;7.20;;;2.28;;
46415;SDS011;32620;51.704;7.822;2023-04-25T13:28:09;7.78;;;2.20;;
46415;SDS011;32620;51.704;7.822;2023-04-25T13:30:35;6.40;;;1.92;;
46415;SDS011;32620;51.704;7.822;2023-04-25T13:33:01;6.00;;;1.83;;
46415;SDS011;32620;51.704;7.822;2023-04-25T13:35:28;5.07;;;1.98;;
46415;SDS011;32620;51.704;7.822;2023-04-25T13:37:55;5.90;;;1.80;;
46415;SDS011;32620;51.704;7.822;2023-04-25T13:40:21;4.38;;;1.85;;
46415;SDS011;32620;51.704;7.822;2023-04-25T13:42:47;7.45;;;2.35;;
46415;SDS011;32620;51.704;7.822;2023-04-25T13:45:12;5.18;;;1.65;;
46415;SDS011;32620;51.704;7.822;2023-04-25T13:47:38;5.75;;;2.00;;
46415;SDS011;32620;51.704;7.822;2023-04-25T13:50:04;7.75;;;1.88;;
46415;SDS011;32620;51.704;7.822;2023-04-25T13:52:32;5.07;;;1.85;;
46415;SDS011;32620;51.704;7.822;2023-04-25T13:54:58;7.75;;;2.08;;
46415;SDS011;32620;51.704;7.822;2023-04-25T13:57:24;7.60;;;2.03;;
46415;SDS011;32620;51.704;7.822;2023-04-25T13:59:50;7.93;;;2.28;;
46415;SDS011;32620;51.704;7.822;2023-04-25T14:02:16;5.90;;;2.30;;
46415;SDS011;32620;51.704;7.822;2023-04-25T14:04:43;5.18;;;1.80;;
46415;SDS011;32620;51.704;7.822;2023-04-25T14:07:08;5.45;;;1.98;;
46415;SDS011;32620;51.704;7.822;2023-04-25T14:09:35;5.55;;;2.05;;
46415;SDS011;32620;51.704;7.822;2023-04-25T14:12:01;5.68;;;1.73;;
46415;SDS011;32620;51.704;7.822;2023-04-25T14:14:27;4.75;;;1.98;;
46415;SDS011;32620;51.704;7.822;2023-04-25T14:16:53;10.27;;;2.33;;
46415;SDS011;32620;51.704;7.822;2023-04-25T14:19:20;3.53;;;1.60;;
46415;SDS011;32620;51.704;7.822;2023-04-25T14:21:46;5.38;;;1.88;;
46415;SDS011;32620;51.704;7.822;2023-04-25T14:24:11;7.15;;;1.88;;
46415;SDS011;32620;51.704;7.822;2023-04-25T14:26:38;8.45;;;2.15;;
46415;SDS011;32620;51.704;7.822;2023-04-25T14:29:04;5.93;;;2.17;;
46415;SDS011;32620;51.704;7.822;2023-04-25T14:31:32;7.05;;;1.90;;